Defoe, Kentucky
Current Conditions -  °F | °C
As of 3:53 PM on Thursday 18 Dec 2014 (Local Time) from KFFT Reporting Station
Overcast Overcast  
Wind Chill:   Ceiling: 2100
Heat Index:   Visibility: 10mi
Dew Point: -5°   Wind: 3mph
Humidity: 69%   Direction: 320°NW
Pressure: 30.2"   Gusts: NA
Location:  38.369°N, 85.0622°W
Report Text: KFFT 182053Z AUTO 32003KT 10SM BKN021 BKN065 OVC090 00/M05 A3020 RMK AO2 SLP236 T00001050 55005
Loading
Personal Weather Stations






























Interactive Weather Map New forecast layout! Learn more

10-Day Weather Forecast

Advertisements
Track Severe Weather on mobile